createdAt,value
2018-07-20T00:01:34.439Z,3.85
2018-07-20T00:04:01.610Z,4.03
2018-07-20T00:06:28.865Z,3.95
2018-07-20T00:08:56.089Z,3.80
2018-07-20T00:11:23.703Z,4.07
2018-07-20T00:13:51.361Z,4.15
2018-07-20T00:16:19.174Z,3.80
2018-07-20T00:18:46.473Z,3.65
2018-07-20T00:21:13.792Z,3.90
2018-07-20T00:23:41.021Z,3.60
2018-07-20T00:26:08.690Z,3.50
2018-07-20T00:28:36.124Z,3.50
2018-07-20T00:31:03.428Z,4.10
2018-07-20T00:33:30.699Z,3.85
2018-07-20T00:35:57.893Z,3.90
2018-07-20T00:38:25.191Z,3.70
2018-07-20T00:40:52.527Z,3.85
2018-07-20T00:43:19.825Z,4.30
2018-07-20T00:45:47.078Z,3.97
2018-07-20T00:48:14.404Z,4.12
2018-07-20T00:50:41.755Z,3.33
2018-07-20T00:53:08.974Z,4.12
2018-07-20T00:55:36.194Z,4.13
2018-07-20T00:58:03.426Z,4.60
2018-07-20T01:00:31.231Z,3.60
2018-07-20T01:02:58.503Z,3.90
2018-07-20T01:05:25.762Z,3.90
2018-07-20T01:07:53.000Z,4.20
2018-07-20T01:10:20.236Z,4.10
2018-07-20T01:12:47.508Z,3.70
2018-07-20T01:15:14.804Z,4.03
2018-07-20T01:17:42.033Z,4.20
2018-07-20T01:20:09.297Z,4.50
2018-07-20T01:22:36.590Z,4.20
2018-07-20T01:25:03.987Z,4.25
2018-07-20T01:27:31.314Z,4.10
2018-07-20T01:29:58.617Z,4.20
2018-07-20T01:32:25.804Z,4.40
2018-07-20T01:34:53.085Z,4.30
2018-07-20T01:37:20.406Z,4.62
2018-07-20T01:39:47.592Z,4.22
2018-07-20T01:42:14.776Z,4.03
2018-07-20T01:44:42.006Z,4.33
2018-07-20T01:47:09.270Z,4.30
2018-07-20T01:49:36.540Z,3.87
2018-07-20T01:52:03.800Z,3.95
2018-07-20T01:54:31.079Z,4.25
2018-07-20T01:56:58.385Z,4.30
2018-07-20T01:59:25.642Z,4.85
2018-07-20T02:01:52.801Z,4.37
2018-07-20T02:04:20.090Z,4.17
2018-07-20T02:06:47.346Z,4.58
2018-07-20T02:09:14.542Z,4.10
2018-07-20T02:11:41.719Z,4.17
2018-07-20T02:14:08.912Z,4.95
2018-07-20T02:16:36.206Z,4.60
2018-07-20T02:19:03.509Z,4.65
2018-07-20T02:21:30.811Z,4.20
2018-07-20T02:23:57.982Z,4.30
2018-07-20T02:26:25.239Z,4.40
2018-07-20T02:28:52.456Z,4.70
2018-07-20T02:31:19.653Z,4.47
2018-07-20T02:33:46.820Z,4.85
2018-07-20T02:36:14.034Z,4.22
2018-07-20T02:38:41.266Z,4.28
2018-07-20T02:41:08.573Z,4.40
2018-07-20T02:43:35.814Z,4.70
2018-07-20T02:46:03.132Z,4.50
2018-07-20T02:48:30.393Z,4.87
2018-07-20T02:50:57.633Z,5.15
2018-07-20T02:53:24.888Z,5.00
2018-07-20T02:55:52.170Z,4.90
2018-07-20T02:58:19.393Z,5.00
2018-07-20T03:00:46.742Z,4.97
2018-07-20T03:03:18.505Z,5.30
2018-07-20T03:05:45.797Z,5.05
2018-07-20T03:08:13.031Z,4.58
2018-07-20T03:10:40.283Z,5.10
2018-07-20T03:13:07.627Z,5.10
2018-07-20T03:15:34.877Z,4.62
2018-07-20T03:18:02.208Z,5.10
2018-07-20T03:20:29.514Z,5.30
2018-07-20T03:22:56.784Z,5.28
2018-07-20T03:25:24.030Z,5.12
2018-07-20T03:27:51.254Z,5.42
2018-07-20T03:30:18.558Z,5.30
2018-07-20T03:32:45.816Z,5.00
2018-07-20T03:35:13.075Z,4.75
2018-07-20T03:37:40.276Z,4.95
2018-07-20T03:40:07.630Z,5.55
2018-07-20T03:42:34.794Z,5.45
2018-07-20T03:45:02.070Z,5.30
2018-07-20T03:47:29.347Z,5.50
2018-07-20T03:49:56.564Z,5.90
2018-07-20T03:52:23.847Z,5.22
2018-07-20T03:54:51.114Z,6.05
2018-07-20T03:57:18.370Z,5.20
2018-07-20T03:59:45.710Z,5.40
2018-07-20T04:02:13.215Z,5.97
2018-07-20T04:04:40.468Z,5.40
2018-07-20T04:07:07.793Z,5.30
2018-07-20T04:09:35.141Z,4.60
2018-07-20T04:12:02.274Z,5.10
2018-07-20T04:14:29.526Z,5.40
2018-07-20T04:16:56.761Z,5.15
2018-07-20T04:19:24.041Z,5.45
2018-07-20T04:21:51.286Z,4.90
2018-07-20T04:24:18.507Z,5.28
2018-07-20T04:26:45.778Z,5.55
2018-07-20T04:29:13.086Z,5.08
2018-07-20T04:31:40.337Z,5.35
2018-07-20T04:34:07.591Z,5.50
2018-07-20T04:36:34.885Z,5.00
2018-07-20T04:39:02.223Z,4.80
2018-07-20T04:41:29.498Z,4.90
2018-07-20T04:43:56.820Z,5.12
2018-07-20T04:46:24.049Z,5.30
2018-07-20T04:48:51.336Z,5.60
2018-07-20T04:51:18.582Z,5.10
2018-07-20T04:53:45.881Z,5.62
2018-07-20T04:56:13.149Z,6.10
2018-07-20T04:58:40.406Z,5.50
2018-07-20T05:01:07.665Z,5.17
2018-07-20T05:03:34.772Z,5.35
2018-07-20T05:06:02.071Z,5.58
2018-07-20T05:08:29.328Z,4.90
2018-07-20T05:10:56.578Z,5.30
2018-07-20T05:13:23.768Z,6.20
2018-07-20T05:15:51.016Z,5.47
2018-07-20T05:18:18.246Z,5.72
2018-07-20T05:20:45.555Z,5.65
2018-07-20T05:23:12.849Z,5.72
2018-07-20T05:25:40.024Z,5.58
2018-07-20T05:28:07.292Z,5.90
2018-07-20T05:30:34.509Z,7.33
2018-07-20T05:33:01.748Z,8.48
2018-07-20T05:35:28.933Z,7.28
2018-07-20T05:37:56.198Z,6.70
2018-07-20T05:40:23.475Z,6.67
2018-07-20T05:42:50.734Z,5.70
2018-07-20T05:45:17.964Z,7.12
2018-07-20T05:47:45.344Z,9.40
2018-07-20T05:50:12.537Z,9.13
2018-07-20T05:52:39.763Z,8.90
2018-07-20T05:55:07.072Z,7.97
2018-07-20T05:57:34.249Z,7.20
2018-07-20T06:00:01.429Z,7.92
2018-07-20T06:02:28.986Z,8.28
2018-07-20T06:04:56.228Z,8.08
2018-07-20T06:07:23.460Z,7.85
2018-07-20T06:09:50.727Z,7.62
2018-07-20T06:12:17.987Z,7.20
2018-07-20T06:14:46.989Z,6.83
2018-07-20T06:17:14.289Z,6.67
2018-07-20T06:19:41.517Z,6.78
2018-07-20T06:22:08.838Z,6.60
2018-07-20T06:24:36.164Z,6.35
2018-07-20T06:27:03.496Z,6.42
2018-07-20T06:29:30.925Z,6.60
2018-07-20T06:31:58.157Z,6.40
2018-07-20T06:34:25.438Z,6.90
2018-07-20T06:36:52.701Z,6.60
2018-07-20T06:39:19.931Z,5.78
2018-07-20T06:41:47.104Z,6.35
2018-07-20T06:44:14.318Z,5.67
2018-07-20T06:46:41.552Z,6.30
2018-07-20T06:49:08.822Z,5.85
2018-07-20T06:51:36.410Z,5.80
2018-07-20T06:54:03.759Z,4.50
2018-07-20T06:56:31.133Z,4.80
2018-07-20T06:58:58.429Z,5.33
2018-07-20T07:01:25.641Z,5.78
2018-07-20T07:03:52.861Z,4.97
2018-07-20T07:06:20.089Z,4.80
2018-07-20T07:08:47.328Z,5.70
2018-07-20T07:11:14.647Z,4.60
2018-07-20T07:13:41.957Z,5.20
2018-07-20T07:16:09.154Z,6.47
2018-07-20T07:18:36.867Z,5.67
2018-07-20T07:21:04.258Z,5.40
2018-07-20T07:23:31.735Z,4.83
2018-07-20T07:25:59.210Z,4.35
2018-07-20T07:28:26.286Z,3.92
2018-07-20T07:30:53.632Z,4.28
2018-07-20T07:33:20.826Z,4.12
2018-07-20T07:35:48.075Z,4.63
2018-07-20T07:38:15.310Z,4.80
2018-07-20T07:40:42.669Z,3.55
2018-07-20T07:43:09.995Z,3.98
2018-07-20T07:45:37.272Z,3.70
2018-07-20T07:48:04.613Z,4.20
2018-07-20T07:50:31.859Z,3.80
2018-07-20T07:52:59.119Z,3.40
2018-07-20T07:55:26.367Z,3.35
2018-07-20T07:57:53.661Z,3.40
2018-07-20T08:00:20.997Z,3.35
2018-07-20T08:02:48.199Z,3.70
2018-07-20T08:05:15.429Z,3.58
2018-07-20T08:07:42.589Z,3.92
2018-07-20T08:10:09.971Z,3.92
2018-07-20T08:12:37.173Z,3.20
2018-07-20T08:15:05.597Z,3.17
2018-07-20T08:17:32.778Z,3.00
2018-07-20T08:20:00.042Z,3.05
2018-07-20T08:22:27.253Z,3.37
2018-07-20T08:24:54.565Z,3.30
2018-07-20T08:27:21.857Z,3.00
2018-07-20T08:29:49.091Z,3.50
2018-07-20T08:32:16.333Z,3.30
2018-07-20T08:34:43.611Z,3.42
2018-07-20T08:37:10.870Z,3.10
2018-07-20T08:39:38.106Z,4.10
2018-07-20T08:42:05.393Z,3.30
2018-07-20T08:44:32.642Z,3.40
2018-07-20T08:46:59.888Z,3.47
2018-07-20T08:49:27.249Z,3.40
2018-07-20T08:51:54.620Z,3.50
2018-07-20T08:54:21.899Z,3.75
2018-07-20T08:56:49.106Z,2.95
2018-07-20T08:59:16.288Z,3.00
2018-07-20T09:01:43.538Z,3.17
2018-07-20T09:04:10.858Z,3.25
2018-07-20T09:06:38.104Z,3.60
2018-07-20T09:09:06.449Z,2.98
2018-07-20T09:11:33.719Z,3.50
2018-07-20T09:14:01.060Z,3.37
2018-07-20T09:16:28.266Z,3.20
2018-07-20T09:18:55.802Z,3.30
2018-07-20T09:21:23.268Z,3.20
2018-07-20T09:23:50.718Z,3.20
2018-07-20T09:26:18.223Z,2.92
2018-07-20T09:28:45.613Z,3.23
2018-07-20T09:31:12.932Z,3.30
2018-07-20T09:33:40.207Z,3.00
2018-07-20T09:36:07.493Z,3.60
2018-07-20T09:38:34.786Z,2.60
2018-07-20T09:41:02.070Z,2.70
2018-07-20T09:43:29.338Z,2.58
2018-07-20T09:45:56.508Z,2.80
2018-07-20T09:48:23.828Z,2.33
2018-07-20T09:50:51.229Z,2.90
2018-07-20T09:53:18.467Z,2.72
2018-07-20T09:55:45.699Z,2.80
2018-07-20T09:58:13.024Z,2.93
2018-07-20T10:00:48.318Z,2.30
2018-07-20T10:03:15.554Z,2.73
2018-07-20T10:05:42.859Z,2.20
2018-07-20T10:08:10.102Z,2.10
2018-07-20T10:10:37.450Z,2.43
2018-07-20T10:13:04.856Z,2.37
2018-07-20T10:15:32.186Z,2.50
2018-07-20T10:17:59.541Z,2.60
2018-07-20T10:20:26.818Z,2.60
2018-07-20T10:22:54.138Z,2.40
2018-07-20T10:25:21.480Z,2.53
2018-07-20T10:27:48.755Z,2.70
2018-07-20T10:30:15.991Z,2.97
2018-07-20T10:32:43.317Z,2.47
2018-07-20T10:35:10.537Z,2.40
2018-07-20T10:37:37.768Z,3.50
2018-07-20T10:40:05.037Z,3.50
2018-07-20T10:42:32.292Z,3.20
2018-07-20T10:44:59.639Z,3.20
2018-07-20T10:47:26.905Z,3.20
2018-07-20T10:49:54.166Z,2.53
2018-07-20T10:52:21.427Z,3.17
2018-07-20T10:54:48.677Z,2.40
2018-07-20T10:57:15.943Z,2.37
2018-07-20T10:59:44.340Z,2.87
2018-07-20T11:02:11.956Z,2.83
2018-07-20T11:04:39.252Z,2.87
2018-07-20T11:07:06.512Z,2.60
2018-07-20T11:09:33.690Z,2.47
2018-07-20T11:12:00.929Z,3.03
2018-07-20T11:14:28.168Z,2.53
2018-07-20T11:19:35.144Z,2.80
2018-07-20T11:22:02.513Z,2.67
2018-07-20T11:24:29.863Z,3.10
2018-07-20T11:26:57.179Z,2.70
2018-07-20T11:29:24.528Z,2.90
2018-07-20T11:31:51.713Z,2.70
2018-07-20T11:34:19.024Z,2.77
2018-07-20T11:36:46.309Z,3.57
2018-07-20T11:39:13.508Z,2.50
2018-07-20T11:41:40.817Z,2.80
2018-07-20T11:44:08.207Z,16.63
2018-07-20T11:46:35.487Z,3.03
2018-07-20T11:49:02.800Z,2.47
2018-07-20T11:51:30.071Z,2.20
2018-07-20T11:53:57.379Z,2.50
2018-07-20T11:56:24.608Z,2.40
2018-07-20T11:58:51.872Z,2.77
2018-07-20T12:01:19.252Z,2.50
2018-07-20T12:03:46.601Z,3.20
2018-07-20T12:06:13.834Z,2.70
2018-07-20T12:08:41.159Z,2.70
2018-07-20T12:11:08.412Z,3.03
2018-07-20T12:13:35.697Z,2.67
2018-07-20T12:16:03.028Z,2.40
2018-07-20T12:18:30.307Z,3.00
2018-07-20T12:20:57.565Z,2.60
2018-07-20T12:23:24.945Z,3.03
2018-07-20T12:25:52.195Z,2.40
2018-07-20T12:28:19.463Z,3.30
2018-07-20T12:30:46.712Z,2.87
2018-07-20T12:33:13.954Z,3.20
2018-07-20T12:35:41.217Z,2.70
2018-07-20T12:38:08.546Z,2.80
2018-07-20T12:40:35.797Z,2.30
2018-07-20T12:43:03.050Z,2.80
2018-07-20T12:45:30.610Z,2.77
2018-07-20T12:47:57.979Z,2.83
2018-07-20T12:50:25.314Z,2.93
2018-07-20T12:52:52.592Z,2.90
2018-07-20T12:55:19.902Z,2.80
2018-07-20T12:57:47.176Z,3.00
2018-07-20T13:00:14.453Z,2.43
2018-07-20T13:02:41.768Z,2.30
2018-07-20T13:05:09.023Z,3.00
2018-07-20T13:07:36.270Z,3.03
2018-07-20T13:10:04.109Z,2.10
2018-07-20T13:12:31.409Z,2.80
2018-07-20T13:14:58.664Z,3.00
2018-07-20T13:17:25.979Z,2.67
2018-07-20T13:19:53.222Z,2.63
2018-07-20T13:22:20.509Z,2.73
2018-07-20T13:24:47.810Z,2.70
2018-07-20T13:27:15.163Z,2.80
2018-07-20T13:29:42.474Z,2.70
2018-07-20T13:32:09.807Z,2.60
2018-07-20T13:34:37.023Z,2.97
2018-07-20T13:37:04.363Z,2.37
2018-07-20T13:39:31.605Z,2.67
2018-07-20T13:41:58.870Z,3.00
2018-07-20T13:44:26.202Z,2.60
2018-07-20T13:46:53.472Z,2.57
2018-07-20T13:49:20.766Z,2.97
2018-07-20T13:51:48.096Z,3.27
2018-07-20T13:54:15.414Z,2.57
2018-07-20T13:56:42.709Z,2.87
2018-07-20T13:59:09.955Z,2.63
2018-07-20T14:01:37.249Z,3.77
2018-07-20T14:04:04.655Z,2.17
2018-07-20T14:06:31.966Z,3.00
2018-07-20T14:08:59.269Z,2.77
2018-07-20T14:11:26.687Z,3.20
2018-07-20T14:13:53.918Z,2.40
2018-07-20T14:16:21.146Z,2.63
2018-07-20T14:18:48.381Z,3.00
2018-07-20T14:21:15.641Z,3.50
2018-07-20T14:23:43.062Z,2.50
2018-07-20T14:26:10.269Z,2.90
2018-07-20T14:28:37.554Z,2.60
2018-07-20T14:31:04.871Z,2.90
2018-07-20T14:33:32.066Z,2.80
2018-07-20T14:35:59.369Z,2.60
2018-07-20T14:38:26.714Z,2.87
2018-07-20T14:40:53.964Z,3.00
2018-07-20T14:43:21.286Z,3.10
2018-07-20T14:45:48.602Z,2.90
2018-07-20T14:48:15.869Z,3.23
2018-07-20T14:50:43.213Z,3.20
2018-07-20T14:53:10.456Z,3.17
2018-07-20T14:55:37.771Z,3.27
2018-07-20T14:58:05.138Z,3.13
2018-07-20T15:00:32.333Z,2.67
2018-07-20T15:02:59.604Z,2.53
2018-07-20T15:05:26.867Z,2.77
2018-07-20T15:07:54.124Z,2.67
2018-07-20T15:10:21.348Z,3.50
2018-07-20T15:12:48.610Z,2.83
2018-07-20T15:15:15.885Z,2.57
2018-07-20T15:17:43.131Z,2.30
2018-07-20T15:20:10.409Z,2.47
2018-07-20T15:22:37.562Z,2.70
2018-07-20T15:25:05.019Z,2.87
2018-07-20T15:27:32.521Z,3.50
2018-07-20T15:29:59.788Z,2.60
2018-07-20T15:32:27.106Z,2.60
2018-07-20T15:34:54.304Z,2.20
2018-07-20T15:37:21.536Z,3.03
2018-07-20T15:39:48.945Z,2.57
2018-07-20T15:42:16.268Z,2.60
2018-07-20T15:44:43.578Z,2.43
2018-07-20T15:47:10.919Z,3.10
2018-07-20T15:49:38.095Z,2.85
2018-07-20T15:54:32.670Z,3.20
2018-07-20T15:56:59.844Z,3.17
2018-07-20T15:59:27.103Z,2.93
2018-07-20T16:01:54.353Z,3.20
2018-07-20T16:04:21.556Z,2.80
2018-07-20T16:06:48.807Z,2.83
2018-07-20T16:09:15.999Z,3.15
2018-07-20T16:11:43.321Z,3.17
2018-07-20T16:14:10.512Z,3.10
2018-07-20T16:16:37.786Z,3.10
2018-07-20T16:19:05.243Z,2.98
2018-07-20T16:21:32.558Z,3.37
2018-07-20T16:23:59.812Z,3.08
2018-07-20T16:26:27.080Z,3.20
2018-07-20T16:28:54.271Z,3.10
2018-07-20T16:31:21.507Z,3.00
2018-07-20T16:33:48.726Z,3.40
2018-07-20T16:36:15.996Z,2.80
2018-07-20T16:38:43.192Z,3.00
2018-07-20T16:41:10.378Z,3.30
2018-07-20T16:43:37.562Z,3.20
2018-07-20T16:46:04.926Z,3.50
2018-07-20T16:48:32.236Z,3.00
2018-07-20T16:50:59.550Z,3.70
2018-07-20T16:53:26.779Z,3.40
2018-07-20T16:55:54.128Z,3.17
2018-07-20T16:58:21.564Z,3.40
2018-07-20T17:00:48.831Z,3.00
2018-07-20T17:03:16.208Z,2.70
2018-07-20T17:05:43.477Z,3.40
2018-07-20T17:08:10.708Z,4.10
2018-07-20T17:10:38.005Z,3.75
2018-07-20T17:13:05.235Z,4.35
2018-07-20T17:15:32.551Z,4.33
2018-07-20T17:17:59.807Z,3.90
2018-07-20T17:20:27.107Z,4.10
2018-07-20T17:22:54.340Z,3.60
2018-07-20T17:25:21.649Z,3.80
2018-07-20T17:27:48.940Z,3.10
2018-07-20T17:30:16.223Z,3.60
2018-07-20T17:32:43.500Z,3.40
2018-07-20T17:35:10.757Z,3.80
2018-07-20T17:37:37.995Z,4.20
2018-07-20T17:40:05.250Z,4.00
2018-07-20T17:42:32.548Z,4.30
2018-07-20T17:44:59.817Z,3.80
2018-07-20T17:47:27.154Z,4.03
2018-07-20T17:49:54.323Z,4.47
2018-07-20T17:52:21.556Z,4.45
2018-07-20T17:54:48.909Z,4.30
2018-07-20T17:57:16.207Z,4.87
2018-07-20T17:59:43.415Z,4.67
2018-07-20T18:02:10.716Z,4.80
2018-07-20T18:04:37.978Z,4.62
2018-07-20T18:07:05.304Z,5.50
2018-07-20T18:09:32.565Z,5.03
2018-07-20T18:14:19.319Z,5.62
2018-07-20T18:16:46.538Z,5.83
2018-07-20T18:19:13.833Z,5.40
2018-07-20T18:21:41.089Z,5.75
2018-07-20T18:24:08.302Z,4.78
2018-07-20T18:26:35.539Z,5.70
2018-07-20T18:29:02.831Z,4.80
2018-07-20T18:31:30.077Z,5.55
2018-07-20T18:33:57.385Z,5.60
2018-07-20T18:36:24.492Z,5.25
2018-07-20T18:38:51.783Z,5.03
2018-07-20T18:41:19.069Z,5.30
2018-07-20T18:43:46.258Z,5.28
2018-07-20T18:46:13.496Z,5.03
2018-07-20T18:48:40.840Z,5.90
2018-07-20T18:51:08.108Z,11.30
2018-07-20T18:53:36.508Z,5.60
2018-07-20T18:56:03.862Z,5.30
2018-07-20T18:58:31.061Z,5.20
2018-07-20T19:00:58.414Z,15.90
2018-07-20T19:03:27.717Z,5.30
2018-07-20T19:05:54.958Z,4.80
2018-07-20T19:08:22.136Z,5.60
2018-07-20T19:10:49.361Z,5.08
2018-07-20T19:13:16.662Z,5.78
2018-07-20T19:15:43.957Z,4.90
2018-07-20T19:18:11.185Z,6.00
2018-07-20T19:20:38.348Z,17.42
2018-07-20T19:23:05.575Z,7.47
2018-07-20T19:25:32.758Z,5.10
2018-07-20T19:28:00.054Z,5.80
2018-07-20T19:30:27.327Z,5.60
2018-07-20T19:32:54.590Z,5.03
2018-07-20T19:35:21.850Z,5.42
2018-07-20T19:37:49.128Z,5.20
2018-07-20T19:40:16.405Z,5.80
2018-07-20T19:42:43.682Z,5.67
2018-07-20T19:45:10.957Z,5.72
2018-07-20T19:47:38.356Z,5.25
2018-07-20T19:50:05.777Z,5.78
2018-07-20T19:52:33.085Z,5.40
2018-07-20T19:55:00.338Z,6.30
2018-07-20T19:57:27.700Z,6.40
2018-07-20T19:59:55.010Z,5.70
2018-07-20T20:02:22.262Z,5.50
2018-07-20T20:06:17.628Z,5.33
2018-07-20T20:08:44.882Z,5.35
2018-07-20T20:11:12.223Z,5.50
2018-07-20T20:13:39.572Z,5.45
2018-07-20T20:16:06.889Z,6.03
2018-07-20T20:18:34.260Z,5.67
2018-07-20T20:21:01.466Z,5.53
2018-07-20T20:23:28.724Z,5.62
2018-07-20T20:25:55.953Z,5.40
2018-07-20T20:28:23.186Z,5.80
2018-07-20T20:30:50.425Z,5.95
2018-07-20T20:33:17.819Z,7.03
2018-07-20T20:35:45.070Z,5.70
2018-07-20T20:38:12.319Z,5.95
2018-07-20T20:40:39.599Z,5.80
2018-07-20T20:43:06.883Z,5.60
2018-07-20T20:45:34.238Z,5.63
2018-07-20T20:48:01.529Z,5.30
2018-07-20T20:50:28.880Z,5.00
2018-07-20T20:52:56.200Z,5.45
2018-07-20T20:55:23.435Z,5.57
2018-07-20T20:57:50.706Z,5.53
2018-07-20T21:00:17.982Z,5.50
2018-07-20T21:02:45.273Z,5.95
2018-07-20T21:05:12.637Z,5.80
2018-07-20T21:07:39.906Z,5.12
2018-07-20T21:10:07.193Z,5.40
2018-07-20T21:12:34.421Z,5.28
2018-07-20T21:15:02.020Z,5.15
2018-07-20T21:17:29.314Z,5.10
2018-07-20T21:19:56.531Z,5.37
2018-07-20T21:22:23.706Z,4.95
2018-07-20T21:24:51.005Z,5.87
2018-07-20T21:27:18.332Z,6.10
2018-07-20T21:29:45.650Z,5.30
2018-07-20T21:32:12.880Z,5.53
2018-07-20T21:34:40.142Z,5.72
2018-07-20T21:37:07.323Z,6.78
2018-07-20T21:39:34.637Z,5.70
2018-07-20T21:42:01.898Z,5.80
2018-07-20T21:44:29.124Z,6.00
2018-07-20T21:46:56.406Z,5.40
2018-07-20T21:49:23.598Z,5.90
2018-07-20T21:51:50.992Z,5.70
2018-07-20T21:54:18.252Z,5.95
2018-07-20T21:56:45.400Z,5.53
2018-07-20T21:59:12.707Z,5.72
2018-07-20T22:01:39.957Z,6.25
2018-07-20T22:04:07.281Z,6.30
2018-07-20T22:06:34.486Z,6.17
2018-07-20T22:09:01.750Z,6.20
2018-07-20T22:11:28.989Z,5.90
2018-07-20T22:13:56.246Z,6.65
2018-07-20T22:16:23.513Z,5.85
2018-07-20T22:18:50.839Z,5.83
2018-07-20T22:21:18.130Z,5.80
2018-07-20T22:23:45.364Z,5.65
2018-07-20T22:26:12.696Z,6.75
2018-07-20T22:28:39.871Z,6.35
2018-07-20T22:31:07.153Z,6.35
2018-07-20T22:33:34.368Z,6.80
2018-07-20T22:36:01.634Z,6.17
2018-07-20T22:38:28.787Z,7.60
2018-07-20T22:40:56.012Z,6.30
2018-07-20T22:43:23.220Z,6.00
2018-07-20T22:45:50.404Z,5.70
2018-07-20T22:48:17.623Z,5.87
2018-07-20T22:50:44.815Z,6.60
2018-07-20T22:53:12.131Z,6.08
2018-07-20T22:55:39.386Z,6.42
2018-07-20T22:58:06.639Z,7.05
2018-07-20T23:00:33.810Z,6.28
2018-07-20T23:03:01.089Z,7.53
2018-07-20T23:05:28.318Z,7.92
2018-07-20T23:07:55.582Z,7.03
2018-07-20T23:10:22.839Z,5.72
2018-07-20T23:12:50.193Z,6.12
2018-07-20T23:15:17.498Z,6.72
2018-07-20T23:17:44.769Z,6.33
2018-07-20T23:20:11.964Z,6.62
2018-07-20T23:22:39.197Z,6.05
2018-07-20T23:25:06.486Z,6.85
2018-07-20T23:27:33.682Z,7.33
2018-07-20T23:30:00.812Z,6.17
2018-07-20T23:32:28.028Z,7.00
2018-07-20T23:34:55.281Z,7.15
2018-07-20T23:37:22.561Z,6.95
2018-07-20T23:39:49.757Z,6.60
2018-07-20T23:42:16.960Z,7.10
2018-07-20T23:44:44.195Z,7.03
2018-07-20T23:47:11.675Z,7.30
2018-07-20T23:49:38.953Z,7.25
2018-07-20T23:52:06.364Z,7.20
2018-07-20T23:54:33.765Z,7.90
2018-07-20T23:57:00.979Z,6.75
2018-07-20T23:59:28.216Z,6.92
